METAR Data
IDs: Format: Raw Decoded Include TAF

Data at: 1529 UTC 24 Aug 2019

METAR for:WSSL (Singapore/Seletar Ar, --, SR)
Text:WSSL 241500Z 13005KT 110V170 CAVOK 28/22 Q1011
Temperature: 28.0°C ( 82°F)
Dewpoint: 22.0°C ( 72°F) [RH = 70%]
Pressure (altimeter):29.85 inches Hg (1011.0 mb)
Winds:from the SE (130 degrees) at 6 MPH (5 knots; 2.6 m/s)
Visibility:6 or more sm (10+ km)
Ceiling:ceiling and visibility are OK
Clouds:unknown

TAF for:WSSL (Singapore/Seletar Ar, --, SR) issued at 1100 UTC 24 Aug 2019
Text:TAF WSSL 241100Z 2412/2518 16009KT 9999 FEW015 SCT020
Forecast period:1200 UTC 24 August 2019 to 1800 UTC 25 August 2019
Forecast type:FROM: standard forecast or significant change
Winds:from the SSE (160 degrees) at 10 MPH (9 knots; 4.6 m/s)
Visibility:6 or more sm (10+ km)
Ceiling:at least 12,000 feet AGL
Clouds: few clouds at 1500 feet AGL, scattered clouds at 2000 feet AGL
Text:PROB30
Forecast period:0300 to 0600 UTC 25 August 2019
Forecast type:TEMPORARY: The following changes expected for less than half the time period
Visibility: 1.86 sm ( 2.99 km)
Ceiling:1500 feet AGL
Clouds: few clouds at 1200 feet AGL, broken clouds at 1500 feet AGL
Weather:TSRA (rain associated with thunderstorm(s))